createdAt,value
2018-06-15T00:00:41.208Z,17.70
2018-06-15T00:03:09.913Z,17.17
2018-06-15T00:05:38.593Z,17.60
2018-06-15T00:08:07.234Z,17.37
2018-06-15T00:10:35.838Z,16.40
2018-06-15T00:13:04.455Z,16.20
2018-06-15T00:15:33.434Z,18.00
2018-06-15T00:18:02.201Z,17.63
2018-06-15T00:20:30.813Z,18.67
2018-06-15T00:22:59.486Z,17.83
2018-06-15T00:25:28.085Z,16.07
2018-06-15T00:27:56.829Z,15.13
2018-06-15T00:30:25.479Z,15.17
2018-06-15T00:32:54.209Z,16.43
2018-06-15T00:35:22.912Z,13.83
2018-06-15T00:37:51.533Z,14.87
2018-06-15T00:40:20.146Z,15.93
2018-06-15T00:42:48.752Z,15.30
2018-06-15T00:45:17.371Z,14.63
2018-06-15T00:47:45.976Z,14.87
2018-06-15T00:50:14.678Z,14.70
2018-06-15T00:52:43.442Z,15.70
2018-06-15T00:55:12.273Z,16.83
2018-06-15T00:57:49.076Z,14.60
2018-06-15T01:00:18.324Z,14.87
2018-06-15T01:02:47.212Z,14.93
2018-06-15T01:05:15.781Z,17.30
2018-06-15T01:07:44.583Z,18.00
2018-06-15T01:10:13.405Z,18.00
2018-06-15T01:12:42.055Z,15.70
2018-06-15T01:15:10.877Z,17.00
2018-06-15T01:17:39.489Z,16.07
2018-06-15T01:20:08.189Z,17.53
2018-06-15T01:22:36.840Z,17.30
2018-06-15T01:25:05.563Z,17.53
2018-06-15T01:27:34.293Z,17.17
2018-06-15T01:30:02.999Z,16.97
2018-06-15T01:32:32.001Z,17.20
2018-06-15T01:35:00.739Z,17.73
2018-06-15T01:37:29.537Z,17.33
2018-06-15T01:39:58.421Z,18.13
2018-06-15T01:42:27.287Z,17.77
2018-06-15T01:44:55.960Z,19.50
2018-06-15T01:47:24.696Z,20.10
2018-06-15T01:49:53.573Z,19.23
2018-06-15T01:52:22.371Z,19.37
2018-06-15T01:54:51.242Z,18.63
2018-06-15T01:57:22.221Z,19.27
2018-06-15T01:59:51.613Z,17.73
2018-06-15T02:02:20.341Z,17.43
2018-06-15T02:04:49.022Z,20.00
2018-06-15T02:07:17.990Z,21.13
2018-06-15T02:09:46.628Z,21.80
2018-06-15T02:12:15.293Z,21.53
2018-06-15T02:14:43.816Z,19.27
2018-06-15T02:17:12.422Z,19.80
2018-06-15T02:19:40.978Z,21.40
2018-06-15T02:22:09.537Z,23.37
2018-06-15T02:24:38.151Z,19.23
2018-06-15T02:27:06.660Z,19.83
2018-06-15T02:29:35.175Z,19.73
2018-06-15T02:32:03.704Z,20.83
2018-06-15T02:34:32.276Z,22.37
2018-06-15T02:37:00.826Z,22.13
2018-06-15T02:39:29.390Z,22.60
2018-06-15T02:41:57.939Z,22.70
2018-06-15T02:44:26.508Z,22.43
2018-06-15T02:46:55.021Z,21.20
2018-06-15T02:49:23.550Z,19.10
2018-06-15T02:51:52.070Z,19.27
2018-06-15T02:54:20.614Z,15.27
2018-06-15T02:56:49.199Z,17.73
2018-06-15T02:59:17.737Z,16.63
2018-06-15T03:01:46.300Z,18.60
2018-06-15T03:04:14.862Z,19.20
2018-06-15T03:06:43.396Z,20.60
2018-06-15T03:09:11.922Z,21.77
2018-06-15T03:11:40.477Z,19.60
2018-06-15T03:14:08.997Z,20.27
2018-06-15T03:16:37.542Z,20.07
2018-06-15T03:19:06.082Z,19.93
2018-06-15T03:21:34.650Z,17.07
2018-06-15T03:24:03.221Z,17.07
2018-06-15T03:26:31.744Z,17.50
2018-06-15T03:29:00.277Z,17.80
2018-06-15T03:31:28.828Z,22.13
2018-06-15T03:33:57.410Z,21.50
2018-06-15T03:36:25.934Z,19.53
2018-06-15T03:38:54.465Z,17.90
2018-06-15T03:41:22.990Z,16.93
2018-06-15T03:43:51.506Z,15.70
2018-06-15T03:46:20.077Z,14.13
2018-06-15T03:48:48.626Z,14.20
2018-06-15T03:51:17.206Z,14.37
2018-06-15T03:53:45.735Z,13.87
2018-06-15T03:56:14.368Z,14.13
2018-06-15T03:58:42.952Z,14.50
2018-06-15T04:01:11.510Z,15.67
2018-06-15T04:03:40.145Z,17.40
2018-06-15T04:06:08.735Z,17.07
2018-06-15T04:08:37.272Z,16.47
2018-06-15T04:11:05.808Z,16.93
2018-06-15T04:13:34.299Z,15.70
2018-06-15T04:16:02.857Z,17.53
2018-06-15T04:18:31.375Z,15.93
2018-06-15T04:20:59.952Z,16.27
2018-06-15T04:23:28.497Z,15.53
2018-06-15T04:25:57.059Z,15.77
2018-06-15T04:28:25.641Z,15.37
2018-06-15T04:30:54.186Z,15.50
2018-06-15T04:33:22.762Z,14.03
2018-06-15T04:35:51.276Z,14.23
2018-06-15T04:38:19.876Z,14.60
2018-06-15T04:40:48.426Z,14.87
2018-06-15T04:43:16.986Z,12.87
2018-06-15T04:45:45.534Z,11.80
2018-06-15T04:48:14.140Z,10.80
2018-06-15T04:50:42.752Z,11.00
2018-06-15T04:53:11.354Z,10.43
2018-06-15T04:55:40.005Z,10.10
2018-06-15T04:58:08.589Z,9.57
2018-06-15T05:00:37.122Z,10.07
2018-06-15T05:03:05.661Z,11.00
2018-06-15T05:05:34.217Z,10.93
2018-06-15T05:08:02.778Z,9.53
2018-06-15T05:10:31.294Z,10.77
2018-06-15T05:12:59.992Z,10.03
2018-06-15T05:15:28.634Z,10.70
2018-06-15T05:17:57.207Z,9.70
2018-06-15T05:20:25.750Z,10.97
2018-06-15T05:22:54.361Z,9.90
2018-06-15T05:25:23.010Z,10.50
2018-06-15T05:27:51.651Z,10.37
2018-06-15T05:30:20.202Z,8.90
2018-06-15T05:32:48.746Z,8.80
2018-06-15T05:35:17.387Z,9.40
2018-06-15T05:37:45.926Z,9.47
2018-06-15T05:40:14.500Z,8.80
2018-06-15T05:42:43.032Z,9.23
2018-06-15T05:45:11.562Z,9.93
2018-06-15T05:47:40.067Z,10.67
2018-06-15T05:50:08.695Z,10.67
2018-06-15T05:52:37.262Z,10.17
2018-06-15T05:55:05.887Z,10.73
2018-06-15T05:57:34.446Z,10.20
2018-06-15T06:00:03.030Z,10.47
2018-06-15T06:02:31.550Z,10.63
2018-06-15T06:05:00.083Z,10.57
2018-06-15T06:07:28.594Z,10.37
2018-06-15T06:09:57.154Z,10.43
2018-06-15T06:12:25.669Z,10.43
2018-06-15T06:14:54.233Z,9.60
2018-06-15T06:17:22.800Z,10.07
2018-06-15T06:19:51.333Z,9.90
2018-06-15T06:22:19.846Z,8.97
2018-06-15T06:24:48.393Z,9.47
2018-06-15T06:27:16.945Z,9.20
2018-06-15T06:29:45.460Z,9.33
2018-06-15T06:32:13.993Z,9.50
2018-06-15T06:34:42.530Z,9.83
2018-06-15T06:37:11.046Z,9.00
2018-06-15T06:39:39.557Z,9.53
2018-06-15T06:42:08.110Z,8.87
2018-06-15T06:44:37.805Z,8.13
2018-06-15T06:47:06.449Z,7.40
2018-06-15T06:49:35.025Z,7.80
2018-06-15T06:52:03.621Z,7.70
2018-06-15T06:54:32.153Z,7.20
2018-06-15T06:57:00.738Z,7.17
2018-06-15T06:59:29.277Z,6.87
2018-06-15T07:01:58.310Z,6.47
2018-06-15T07:04:27.329Z,6.50
2018-06-15T07:06:56.365Z,7.30
2018-06-15T07:09:25.590Z,7.00
2018-06-15T07:11:55.005Z,7.30
2018-06-15T07:14:24.109Z,7.07
2018-06-15T07:16:53.066Z,5.87
2018-06-15T07:19:22.825Z,5.40
2018-06-15T07:21:52.726Z,5.60
2018-06-15T07:24:21.529Z,5.90
2018-06-15T07:26:50.586Z,4.83
2018-06-15T07:29:19.485Z,4.67
2018-06-15T07:31:48.490Z,4.47
2018-06-15T07:34:17.659Z,4.40
2018-06-15T07:36:46.465Z,3.75
2018-06-15T07:39:15.240Z,3.95
2018-06-15T07:41:44.013Z,3.58
2018-06-15T07:44:13.421Z,4.22
2018-06-15T07:46:42.378Z,4.05
2018-06-15T07:49:11.248Z,3.65
2018-06-15T07:51:39.937Z,3.80
2018-06-15T07:54:08.641Z,3.67
2018-06-15T07:56:38.182Z,4.30
2018-06-15T07:59:07.169Z,3.83
2018-06-15T08:01:35.824Z,4.53
2018-06-15T08:04:07.494Z,4.03
2018-06-15T08:06:36.128Z,4.50
2018-06-15T08:09:07.447Z,3.02
2018-06-15T08:11:36.367Z,4.05
2018-06-15T08:14:05.076Z,4.30
2018-06-15T08:16:34.338Z,3.92
2018-06-15T08:19:02.911Z,3.70
2018-06-15T08:21:31.521Z,3.30
2018-06-15T08:24:00.285Z,3.47
2018-06-15T08:26:29.128Z,3.80
2018-06-15T08:28:57.776Z,3.22
2018-06-15T08:31:26.485Z,3.10
2018-06-15T08:33:55.109Z,2.80
2018-06-15T08:36:23.737Z,3.00
2018-06-15T08:38:52.473Z,2.75
2018-06-15T08:41:21.083Z,3.30
2018-06-15T08:43:49.800Z,2.95
2018-06-15T08:46:18.553Z,3.02
2018-06-15T08:48:47.169Z,3.15
2018-06-15T08:51:15.882Z,2.60
2018-06-15T08:53:44.541Z,2.85
2018-06-15T08:56:13.201Z,2.62
2018-06-15T08:58:41.890Z,2.60
2018-06-15T09:01:11.329Z,3.10
2018-06-15T09:03:40.095Z,2.85
2018-06-15T09:06:09.264Z,2.92
2018-06-15T09:08:38.114Z,3.35
2018-06-15T09:11:09.379Z,2.85
2018-06-15T09:13:38.116Z,3.50
2018-06-15T09:16:06.763Z,3.60
2018-06-15T09:18:36.619Z,3.20
2018-06-15T09:21:05.664Z,3.47
2018-06-15T09:23:34.338Z,3.00
2018-06-15T09:26:03.079Z,2.93
2018-06-15T09:28:32.054Z,3.37
2018-06-15T09:31:00.981Z,3.40
2018-06-15T09:33:31.253Z,3.67
2018-06-15T09:36:03.815Z,3.10
2018-06-15T09:38:32.631Z,3.60
2018-06-15T09:41:01.574Z,3.27
2018-06-15T09:43:31.864Z,2.97
2018-06-15T09:46:01.526Z,2.75
2018-06-15T09:48:31.231Z,2.85
2018-06-15T09:51:00.070Z,3.00
2018-06-15T09:53:32.994Z,3.00
2018-06-15T09:56:01.710Z,2.70
2018-06-15T09:58:31.612Z,3.00
2018-06-15T10:01:05.534Z,2.77
2018-06-15T10:03:35.172Z,2.83
2018-06-15T10:06:05.413Z,3.20
2018-06-15T10:08:34.615Z,3.40
2018-06-15T10:11:03.458Z,4.20
2018-06-15T10:13:32.360Z,3.90
2018-06-15T10:16:01.079Z,3.80
2018-06-15T10:18:30.378Z,3.87
2018-06-15T10:20:59.161Z,3.80
2018-06-15T10:23:27.730Z,3.63
2018-06-15T10:25:56.317Z,4.13
2018-06-15T10:28:24.856Z,3.50
2018-06-15T10:30:53.492Z,4.07
2018-06-15T10:33:22.068Z,3.87
2018-06-15T10:35:50.635Z,3.77
2018-06-15T10:38:19.247Z,3.93
2018-06-15T10:40:47.817Z,3.40
2018-06-15T10:43:16.384Z,4.00
2018-06-15T10:45:44.986Z,3.53
2018-06-15T10:48:13.946Z,4.93
2018-06-15T10:50:42.733Z,4.00
2018-06-15T10:53:11.303Z,4.00
2018-06-15T10:55:39.870Z,3.80
2018-06-15T10:58:08.424Z,4.03
2018-06-15T11:00:37.013Z,4.17
2018-06-15T11:03:05.667Z,4.20
2018-06-15T11:05:34.237Z,3.93
2018-06-15T11:08:02.768Z,4.87
2018-06-15T11:10:31.330Z,5.63
2018-06-15T11:12:59.942Z,3.80
2018-06-15T11:15:28.512Z,5.13
2018-06-15T11:17:57.128Z,3.73
2018-06-15T11:20:25.661Z,3.73
2018-06-15T11:22:54.230Z,3.83
2018-06-15T11:25:22.827Z,3.40
2018-06-15T11:27:51.398Z,3.70
2018-06-15T11:30:19.933Z,3.30
2018-06-15T11:32:48.455Z,3.50
2018-06-15T11:35:17.143Z,3.77
2018-06-15T11:37:45.709Z,3.50
2018-06-15T11:40:14.253Z,3.80
2018-06-15T11:42:42.874Z,3.70
2018-06-15T11:45:11.409Z,3.33
2018-06-15T11:47:39.966Z,3.73
2018-06-15T11:50:08.501Z,3.57
2018-06-15T11:52:37.037Z,4.33
2018-06-15T11:55:05.804Z,4.20
2018-06-15T11:57:34.438Z,4.33
2018-06-15T12:00:02.976Z,4.27
2018-06-15T12:02:31.526Z,4.47
2018-06-15T12:05:00.074Z,4.40
2018-06-15T12:07:28.642Z,4.20
2018-06-15T12:09:57.137Z,3.80
2018-06-15T12:12:25.664Z,4.43
2018-06-15T12:14:54.261Z,4.60
2018-06-15T12:17:22.821Z,4.00
2018-06-15T12:19:51.453Z,4.50
2018-06-15T12:22:20.003Z,3.87
2018-06-15T12:24:48.646Z,5.13
2018-06-15T12:27:17.220Z,5.00
2018-06-15T12:29:45.742Z,4.80
2018-06-15T12:32:14.301Z,3.97
2018-06-15T12:34:42.855Z,4.00
2018-06-15T12:37:11.386Z,3.97
2018-06-15T12:39:39.934Z,4.23
2018-06-15T12:42:08.453Z,4.80
2018-06-15T12:44:37.061Z,4.90
2018-06-15T12:47:05.586Z,4.37
2018-06-15T12:49:34.125Z,4.43
2018-06-15T12:52:02.652Z,4.57
2018-06-15T12:54:31.222Z,3.87
2018-06-15T12:56:59.873Z,3.60
2018-06-15T12:59:28.459Z,3.67
2018-06-15T13:01:57.053Z,3.57
2018-06-15T13:04:26.211Z,3.70
2018-06-15T13:06:54.781Z,3.93
2018-06-15T13:09:23.285Z,3.90
2018-06-15T13:11:51.843Z,3.90
2018-06-15T13:14:20.429Z,3.40
2018-06-15T13:16:48.959Z,3.83
2018-06-15T13:19:17.533Z,3.73
2018-06-15T13:21:46.111Z,3.53
2018-06-15T13:24:14.654Z,3.77
2018-06-15T13:26:43.211Z,3.57
2018-06-15T13:29:11.745Z,3.10
2018-06-15T13:31:40.273Z,3.97
2018-06-15T13:34:08.805Z,3.83
2018-06-15T13:36:37.339Z,3.43
2018-06-15T13:39:09.725Z,3.50
2018-06-15T13:41:38.262Z,3.70
2018-06-15T13:44:06.776Z,3.67
2018-06-15T13:46:35.647Z,3.33
2018-06-15T13:49:04.206Z,3.10
2018-06-15T13:51:32.747Z,4.10
2018-06-15T13:54:01.261Z,3.87
2018-06-15T13:56:29.818Z,3.37
2018-06-15T13:58:58.376Z,3.53
2018-06-15T14:01:26.937Z,3.63
2018-06-15T14:03:55.479Z,3.27
2018-06-15T14:06:24.019Z,3.30
2018-06-15T14:08:52.522Z,3.53
2018-06-15T14:11:21.058Z,3.10
2018-06-15T14:13:49.627Z,2.90
2018-06-15T14:16:18.193Z,3.33
2018-06-15T14:18:50.258Z,2.83
2018-06-15T14:21:18.816Z,2.80
2018-06-15T14:23:47.334Z,3.00
2018-06-15T14:26:15.885Z,2.80
2018-06-15T14:28:44.389Z,3.20
2018-06-15T14:31:12.928Z,2.90
2018-06-15T14:33:41.437Z,3.07
2018-06-15T14:36:10.089Z,2.83
2018-06-15T14:38:38.640Z,3.30
2018-06-15T14:41:07.184Z,2.83
2018-06-15T14:43:35.848Z,3.00
2018-06-15T14:46:04.339Z,2.97
2018-06-15T14:48:32.886Z,2.67
2018-06-15T14:51:01.388Z,2.40
2018-06-15T14:53:29.927Z,2.70
2018-06-15T14:55:58.457Z,2.80
2018-06-15T14:58:27.154Z,2.80
2018-06-15T15:00:55.739Z,2.63
2018-06-15T15:03:24.265Z,3.10
2018-06-15T15:05:52.818Z,3.53
2018-06-15T15:08:21.366Z,2.80
2018-06-15T15:10:49.894Z,3.10
2018-06-15T15:13:18.505Z,3.20
2018-06-15T15:15:47.122Z,2.83
2018-06-15T15:18:15.800Z,3.10
2018-06-15T15:20:44.327Z,2.70
2018-06-15T15:23:12.953Z,3.13
2018-06-15T15:25:41.603Z,2.60
2018-06-15T15:28:10.141Z,2.90
2018-06-15T15:30:38.650Z,3.07
2018-06-15T15:33:07.224Z,3.27
2018-06-15T15:35:35.747Z,3.10
2018-06-15T15:38:04.266Z,3.43
2018-06-15T15:40:32.786Z,2.93
2018-06-15T15:43:01.302Z,3.17
2018-06-15T15:45:29.851Z,3.00
2018-06-15T15:47:58.375Z,3.10
2018-06-15T15:50:26.934Z,2.53
2018-06-15T15:52:55.474Z,2.67
2018-06-15T15:55:24.011Z,2.80
2018-06-15T15:57:52.624Z,2.90
2018-06-15T16:00:21.166Z,2.80
2018-06-15T16:02:49.696Z,3.00
2018-06-15T16:05:18.224Z,2.53
2018-06-15T16:07:46.745Z,2.53
2018-06-15T16:10:15.331Z,2.43
2018-06-15T16:12:43.921Z,3.00
2018-06-15T16:15:12.553Z,2.60
2018-06-15T16:17:41.147Z,13.10
2018-06-15T16:20:09.799Z,8.00
2018-06-15T16:22:38.365Z,7.03
2018-06-15T16:25:06.897Z,5.27
2018-06-15T16:27:35.425Z,2.60
2018-06-15T16:30:04.039Z,5.50
2018-06-15T16:32:32.537Z,3.23
2018-06-15T16:35:01.168Z,6.27
2018-06-15T16:37:29.738Z,4.80
2018-06-15T16:39:58.267Z,3.57
2018-06-15T16:42:26.794Z,3.03
2018-06-15T16:44:55.291Z,2.97
2018-06-15T16:47:23.799Z,3.50
2018-06-15T16:49:52.313Z,3.00
2018-06-15T16:52:20.844Z,5.77
2018-06-15T16:54:49.375Z,4.20
2018-06-15T16:57:17.884Z,3.00
2018-06-15T16:59:46.378Z,3.57
2018-06-15T17:02:14.884Z,2.67
2018-06-15T17:04:43.373Z,2.83
2018-06-15T17:07:11.913Z,3.43
2018-06-15T17:09:40.422Z,3.50
2018-06-15T17:12:08.955Z,3.17
2018-06-15T17:14:37.466Z,3.07
2018-06-15T17:17:06.043Z,4.50
2018-06-15T17:19:34.553Z,3.10
2018-06-15T17:22:03.090Z,2.93
2018-06-15T17:24:31.589Z,3.07
2018-06-15T17:27:00.162Z,2.90
2018-06-15T17:29:28.720Z,3.20
2018-06-15T17:31:57.275Z,3.10
2018-06-15T17:34:25.792Z,3.20
2018-06-15T17:36:54.336Z,2.93
2018-06-15T17:39:22.881Z,3.40
2018-06-15T17:41:51.397Z,3.20
2018-06-15T17:44:19.950Z,2.90
2018-06-15T17:46:48.502Z,3.00
2018-06-15T17:49:17.073Z,3.20
2018-06-15T17:51:45.585Z,4.00
2018-06-15T17:54:14.137Z,3.50
2018-06-15T17:56:42.649Z,3.33
2018-06-15T17:59:11.181Z,3.23
2018-06-15T18:01:39.695Z,3.43
2018-06-15T18:04:08.228Z,3.53
2018-06-15T18:06:36.745Z,4.00
2018-06-15T18:09:09.397Z,5.00
2018-06-15T18:11:38.044Z,4.47
2018-06-15T18:14:06.649Z,5.03
2018-06-15T18:16:35.317Z,6.27
2018-06-15T18:19:03.881Z,6.90
2018-06-15T18:21:32.470Z,4.23
2018-06-15T18:24:01.065Z,4.20
2018-06-15T18:26:29.626Z,4.90
2018-06-15T18:28:58.179Z,4.67
2018-06-15T18:31:26.717Z,4.43
2018-06-15T18:33:55.368Z,4.50
2018-06-15T18:36:23.910Z,4.77
2018-06-15T18:38:52.452Z,4.00
2018-06-15T18:41:21.035Z,5.10
2018-06-15T18:43:49.621Z,4.63
2018-06-15T18:46:18.171Z,4.60
2018-06-15T18:48:47.327Z,4.37
2018-06-15T18:51:18.035Z,4.17
2018-06-15T18:53:46.641Z,4.87
2018-06-15T18:56:15.354Z,4.30
2018-06-15T18:58:43.969Z,4.60
2018-06-15T19:01:12.670Z,4.90
2018-06-15T19:03:42.353Z,4.40
2018-06-15T19:06:11.075Z,4.40
2018-06-15T19:08:39.712Z,4.47
2018-06-15T19:11:08.399Z,4.63
2018-06-15T19:13:37.322Z,4.77
2018-06-15T19:16:06.520Z,4.43
2018-06-15T19:18:35.419Z,5.50
2018-06-15T19:21:04.326Z,5.23
2018-06-15T19:23:33.044Z,4.77
2018-06-15T19:26:02.041Z,4.63
2018-06-15T19:28:30.857Z,5.20
2018-06-15T19:30:59.469Z,5.03
2018-06-15T19:33:28.930Z,4.70
2018-06-15T19:35:57.469Z,5.30
2018-06-15T19:38:25.989Z,4.80
2018-06-15T19:40:54.614Z,4.90
2018-06-15T19:43:23.203Z,4.50
2018-06-15T19:45:51.782Z,5.27
2018-06-15T19:48:20.484Z,5.30
2018-06-15T19:50:49.053Z,5.43
2018-06-15T19:53:17.581Z,5.60
2018-06-15T19:55:46.147Z,4.73
2018-06-15T19:58:14.884Z,4.87
2018-06-15T20:00:43.492Z,5.20
2018-06-15T20:03:12.052Z,4.43
2018-06-15T20:05:40.777Z,5.00
2018-06-15T20:08:09.361Z,4.50
2018-06-15T20:10:37.977Z,5.17
2018-06-15T20:13:06.510Z,4.67
2018-06-15T20:15:35.114Z,4.90
2018-06-15T20:18:03.754Z,5.00
2018-06-15T20:20:32.397Z,4.97
2018-06-15T20:23:00.958Z,4.90
2018-06-15T20:25:29.553Z,5.30
2018-06-15T20:27:58.107Z,5.30
2018-06-15T20:30:26.641Z,5.60
2018-06-15T20:32:55.192Z,6.03
2018-06-15T20:35:23.718Z,5.37
2018-06-15T20:37:52.216Z,5.67
2018-06-15T20:40:20.767Z,5.63
2018-06-15T20:42:49.292Z,5.97
2018-06-15T20:45:17.876Z,6.20
2018-06-15T20:47:46.503Z,5.97
2018-06-15T20:50:15.109Z,6.10
2018-06-15T20:52:43.660Z,6.30
2018-06-15T20:55:12.293Z,6.03
2018-06-15T20:57:40.864Z,6.80
2018-06-15T21:00:09.453Z,6.47
2018-06-15T21:02:38.016Z,8.07
2018-06-15T21:05:06.659Z,7.10
2018-06-15T21:07:35.375Z,7.77
2018-06-15T21:10:03.930Z,7.73
2018-06-15T21:12:32.445Z,7.30
2018-06-15T21:15:01.068Z,8.27
2018-06-15T21:17:29.582Z,8.60
2018-06-15T21:19:58.139Z,7.40
2018-06-15T21:22:26.914Z,8.03
2018-06-15T21:24:55.436Z,7.27
2018-06-15T21:27:23.989Z,8.63
2018-06-15T21:29:52.501Z,8.27
2018-06-15T21:32:21.025Z,9.03
2018-06-15T21:34:49.640Z,9.30
2018-06-15T21:37:18.181Z,9.90
2018-06-15T21:39:46.749Z,8.63
2018-06-15T21:42:15.380Z,8.33
2018-06-15T21:44:43.863Z,9.70
2018-06-15T21:47:12.442Z,9.37
2018-06-15T21:49:41.127Z,8.63
2018-06-15T21:52:09.674Z,9.67
2018-06-15T21:54:38.306Z,9.20
2018-06-15T21:57:06.874Z,10.37
2018-06-15T21:59:35.363Z,9.93
2018-06-15T22:02:04.037Z,10.50
2018-06-15T22:04:32.620Z,11.53
2018-06-15T22:07:01.205Z,12.87
2018-06-15T22:09:29.769Z,12.27
2018-06-15T22:11:58.361Z,13.90
2018-06-15T22:14:26.911Z,13.07
2018-06-15T22:16:55.537Z,13.10
2018-06-15T22:19:24.695Z,13.13
2018-06-15T22:21:54.277Z,11.77
2018-06-15T22:24:23.660Z,12.60
2018-06-15T22:26:52.554Z,12.27
2018-06-15T22:29:21.104Z,12.50
2018-06-15T22:31:49.840Z,11.93
2018-06-15T22:34:18.341Z,11.80
2018-06-15T22:36:47.030Z,12.07
2018-06-15T22:39:16.352Z,12.50
2018-06-15T22:41:44.945Z,13.30
2018-06-15T22:44:14.191Z,14.03
2018-06-15T22:46:43.236Z,11.73
2018-06-15T22:49:12.381Z,13.17
2018-06-15T22:51:42.148Z,12.90
2018-06-15T22:54:10.762Z,12.57
2018-06-15T22:56:39.311Z,12.60
2018-06-15T22:59:07.860Z,11.20
2018-06-15T23:01:36.409Z,12.07
2018-06-15T23:04:05.007Z,11.50
2018-06-15T23:06:33.742Z,12.17
2018-06-15T23:09:02.332Z,11.90
2018-06-15T23:11:30.985Z,12.37
2018-06-15T23:13:59.540Z,13.90
2018-06-15T23:16:28.104Z,12.60
2018-06-15T23:18:56.780Z,13.63
2018-06-15T23:21:25.321Z,13.03
2018-06-15T23:23:53.870Z,14.63
2018-06-15T23:26:22.576Z,14.87
2018-06-15T23:28:51.137Z,12.67
2018-06-15T23:31:19.720Z,14.33
2018-06-15T23:33:48.272Z,13.23
2018-06-15T23:36:16.870Z,14.17
2018-06-15T23:38:45.653Z,14.90
2018-06-15T23:41:14.256Z,14.30
2018-06-15T23:43:42.817Z,15.30
2018-06-15T23:46:11.605Z,14.93
2018-06-15T23:48:40.171Z,15.60
2018-06-15T23:51:08.826Z,14.80
2018-06-15T23:53:37.339Z,15.50
2018-06-15T23:56:06.377Z,15.07
2018-06-15T23:58:34.951Z,14.47
